Time;durP1;ratioP1;P1;durP2;ratioP2;P2;SDS_P1;SDS_P2;PMS_P1;PMS_P2;Temp;Humidity;BMP_temperature;BMP_pressure;BME280_temperature;BME280_humidity;BME280_pressure;Samples;Min_cycle;Max_cycle;Signal;HPM_P1;HPM_P2
2023/03/24 00:01:59;;;;;;;9.40;8.23;;;;;;;;;;5110896;28;20215;-80
2023/03/24 00:04:28;;;;;;;9.63;8.67;;;;;;;;;;5110794;28;20200;-80
2023/03/24 00:06:55;;;;;;;12.77;10.47;;;;;;;;;;5111417;28;20207;-80
2023/03/24 00:09:22;;;;;;;10.27;9.13;;;;;;;;;;5111387;28;20211;-80
2023/03/24 00:11:48;;;;;;;13.97;10.83;;;;;;;;;;5111246;28;20230;-79
2023/03/24 00:14:17;;;;;;;15.93;10.83;;;;;;;;;;5110806;28;20211;-80
2023/03/24 00:16:45;;;;;;;12.50;10.27;;;;;;;;;;5110781;28;20199;-80
2023/03/24 00:19:13;;;;;;;12.83;10.63;;;;;;;;;;5110907;28;20200;-80
2023/03/24 00:21:41;;;;;;;14.90;10.00;;;;;;;;;;5111044;28;20708;-80
2023/03/24 00:24:10;;;;;;;11.40;9.03;;;;;;;;;;5110281;28;20219;-80
2023/03/24 00:26:38;;;;;;;10.03;7.87;;;;;;;;;;5110539;28;20238;-80
2023/03/24 00:29:05;;;;;;;10.13;9.03;;;;;;;;;;5111372;28;20202;-80
2023/03/24 00:31:32;;;;;;;8.90;7.87;;;;;;;;;;5111190;28;20263;-80
2023/03/24 00:34:01;;;;;;;11.47;8.20;;;;;;;;;;5110601;28;20210;-80
2023/03/24 00:36:28;;;;;;;11.87;8.53;;;;;;;;;;5111052;28;20213;-80
2023/03/24 00:38:56;;;;;;;9.30;8.23;;;;;;;;;;5111249;28;20277;-80
2023/03/24 00:41:25;;;;;;;10.20;7.93;;;;;;;;;;5110358;28;20290;-80
2023/03/24 00:43:54;;;;;;;11.00;9.10;;;;;;;;;;5111130;28;20660;-81
2023/03/24 00:46:31;;;;;;;9.60;7.90;;;;;;;;;;5110525;28;20211;-80
2023/03/24 00:49:04;;;;;;;9.13;8.07;;;;;;;;;;5101342;28;20230;-80
2023/03/24 00:51:32;;;;;;;9.43;7.73;;;;;;;;;;5110660;28;20199;-80
2023/03/24 00:54:00;;;;;;;10.60;8.30;;;;;;;;;;5114943;28;20204;-80
2023/03/24 00:56:29;;;;;;;13.33;8.93;;;;;;;;;;5114672;28;20689;-80
2023/03/24 00:58:57;;;;;;;9.97;8.60;;;;;;;;;;5102854;28;20587;-80
2023/03/24 01:01:26;;;;;;;9.57;7.97;;;;;;;;;;5107613;28;20671;-80
2023/03/24 01:03:55;;;;;;;8.77;7.87;;;;;;;;;;5107236;28;20235;-82
2023/03/24 01:06:24;;;;;;;12.10;8.07;;;;;;;;;;5101564;28;20619;-79
2023/03/24 01:08:52;;;;;;;8.90;7.37;;;;;;;;;;5114371;28;20239;-79
2023/03/24 01:11:23;;;;;;;8.37;7.07;;;;;;;;;;5114040;28;20219;-79
2023/03/24 01:13:50;;;;;;;8.67;7.20;;;;;;;;;;5114133;28;20678;-80
2023/03/24 01:16:17;;;;;;;9.80;7.97;;;;;;;;;;5113915;28;20195;-80
2023/03/24 01:18:44;;;;;;;10.03;8.23;;;;;;;;;;5114538;28;20227;-80
2023/03/24 01:21:12;;;;;;;8.13;7.10;;;;;;;;;;5114073;28;20195;-80
2023/03/24 01:23:41;;;;;;;9.13;8.17;;;;;;;;;;5113314;28;20231;-79
2023/03/24 01:26:09;;;;;;;8.27;7.13;;;;;;;;;;5114634;28;20203;-79
2023/03/24 01:28:39;;;;;;;8.63;7.57;;;;;;;;;;5114428;28;20276;-80
2023/03/24 01:31:07;;;;;;;10.73;8.20;;;;;;;;;;5114183;28;20208;-80
2023/03/24 01:33:34;;;;;;;9.23;7.83;;;;;;;;;;5099975;28;20212;-80
2023/03/24 01:36:01;;;;;;;8.47;7.63;;;;;;;;;;5113631;28;20231;-79
2023/03/24 01:38:28;;;;;;;8.90;6.80;;;;;;;;;;5114557;28;20208;-80
2023/03/24 01:40:56;;;;;;;9.63;6.93;;;;;;;;;;5114080;28;20210;-82
2023/03/24 01:43:26;;;;;;;7.60;6.60;;;;;;;;;;5113653;28;20232;-80
2023/03/24 01:46:13;;;;;;;9.30;7.97;;;;;;;;;;5114196;28;20252;-80
2023/03/24 01:48:44;;;;;;;10.57;7.60;;;;;;;;;;5113912;28;20689;-80
2023/03/24 01:51:15;;;;;;;11.40;7.73;;;;;;;;;;5113634;28;20210;-80
2023/03/24 01:53:45;;;;;;;7.60;6.80;;;;;;;;;;5113412;28;20192;-80
2023/03/24 01:56:14;;;;;;;9.23;7.17;;;;;;;;;;5100143;28;20212;-80
2023/03/24 01:58:46;;;;;;;11.17;8.40;;;;;;;;;;5113772;28;20260;-80
2023/03/24 02:01:12;;;;;;;8.53;6.77;;;;;;;;;;5112419;28;20207;-80
2023/03/24 02:03:40;;;;;;;10.47;8.07;;;;;;;;;;5113186;28;20223;-80
2023/03/24 02:06:08;;;;;;;9.83;8.37;;;;;;;;;;5113273;28;20674;-80
2023/03/24 02:08:39;;;;;;;10.63;8.47;;;;;;;;;;5113050;28;20211;-79
2023/03/24 02:11:06;;;;;;;11.10;8.37;;;;;;;;;;5113057;28;20204;-80
2023/03/24 02:13:34;;;;;;;9.70;7.20;;;;;;;;;;5113457;28;20196;-80
2023/03/24 02:16:13;;;;;;;9.43;7.93;;;;;;;;;;5112785;28;20287;-80
2023/03/24 02:18:45;;;;;;;7.87;7.07;;;;;;;;;;5112331;28;20713;-80
2023/03/24 02:21:36;;;;;;;10.77;8.47;;;;;;;;;;5112847;28;20231;-80
2023/03/24 02:24:29;;;;;;;8.37;7.43;;;;;;;;;;5113552;28;20215;-80
2023/03/24 02:27:01;;;;;;;9.43;7.57;;;;;;;;;;5089265;28;20208;-80
2023/03/24 02:30:08;;;;;;;9.33;8.33;;;;;;;;;;5112749;28;20221;-80
2023/03/24 02:33:04;;;;;;;12.83;8.13;;;;;;;;;;5112964;28;20196;-80
2023/03/24 02:36:09;;;;;;;9.43;8.27;;;;;;;;;;5112567;28;20210;-80
2023/03/24 02:38:57;;;;;;;11.37;8.33;;;;;;;;;;5112748;28;20196;-80
2023/03/24 02:41:29;;;;;;;11.27;8.60;;;;;;;;;;5113138;28;20204;-80
2023/03/24 02:44:01;;;;;;;10.93;8.07;;;;;;;;;;5112607;28;20242;-80
2023/03/24 02:46:35;;;;;;;12.10;9.97;;;;;;;;;;5112588;28;20203;-82
2023/03/24 02:49:12;;;;;;;17.27;14.30;;;;;;;;;;5112859;28;20207;-80
2023/03/24 02:51:44;;;;;;;18.93;13.87;;;;;;;;;;5112094;28;20203;-80
2023/03/24 02:54:14;;;;;;;16.07;10.40;;;;;;;;;;5112893;28;20214;-80
2023/03/24 02:56:44;;;;;;;11.90;9.07;;;;;;;;;;5111876;28;20198;-80
2023/03/24 02:59:16;;;;;;;11.40;9.37;;;;;;;;;;5112814;28;20207;-80
2023/03/24 03:01:53;;;;;;;12.13;9.93;;;;;;;;;;5112206;28;20195;-80
2023/03/24 03:04:22;;;;;;;9.60;8.00;;;;;;;;;;5112321;28;20226;-80
2023/03/24 03:06:52;;;;;;;9.40;8.40;;;;;;;;;;5112464;28;20771;-80
2023/03/24 03:09:20;;;;;;;9.90;8.83;;;;;;;;;;5112756;28;20223;-80
2023/03/24 03:11:49;;;;;;;13.00;8.87;;;;;;;;;;5111973;28;20235;-80
2023/03/24 03:14:21;;;;;;;11.03;8.70;;;;;;;;;;5110893;28;20269;-80
2023/03/24 03:16:52;;;;;;;11.07;8.17;;;;;;;;;;5112460;28;20200;-80
2023/03/24 03:19:21;;;;;;;9.73;8.00;;;;;;;;;;5112081;28;20609;-81
2023/03/24 03:21:49;;;;;;;10.70;8.50;;;;;;;;;;5106152;28;20205;-80
2023/03/24 03:24:25;;;;;;;9.30;7.90;;;;;;;;;;5091375;28;20692;-81
2023/03/24 03:26:56;;;;;;;10.63;8.97;;;;;;;;;;5099385;28;20208;-81
2023/03/24 03:29:26;;;;;;;7.80;7.03;;;;;;;;;;5089655;28;20316;-81
2023/03/24 03:31:58;;;;;;;8.40;7.37;;;;;;;;;;5090069;28;20192;-81
2023/03/24 03:34:32;;;;;;;10.00;8.13;;;;;;;;;;5085391;28;20307;-81
2023/03/24 03:37:03;;;;;;;10.10;8.40;;;;;;;;;;5102692;28;20210;-81
2023/03/24 03:39:33;;;;;;;8.37;7.17;;;;;;;;;;5112553;28;20199;-81
2023/03/24 03:42:01;;;;;;;8.80;7.67;;;;;;;;;;5111798;28;20200;-81
2023/03/24 03:44:28;;;;;;;9.73;7.63;;;;;;;;;;5111655;28;20640;-81
2023/03/24 03:46:56;;;;;;;9.50;8.60;;;;;;;;;;5111948;28;20207;-81
2023/03/24 03:49:24;;;;;;;8.90;8.00;;;;;;;;;;5111737;28;20199;-80
2023/03/24 03:51:52;;;;;;;8.37;7.53;;;;;;;;;;5111943;28;20209;-81
2023/03/24 03:54:20;;;;;;;9.67;7.63;;;;;;;;;;5111317;28;20202;-81
2023/03/24 03:56:49;;;;;;;12.73;7.90;;;;;;;;;;5111410;28;20203;-81
2023/03/24 03:59:28;;;;;;;9.03;7.50;;;;;;;;;;5093862;28;20271;-81
2023/03/24 04:01:55;;;;;;;8.87;7.83;;;;;;;;;;5104433;28;20201;-82
2023/03/24 04:04:40;;;;;;;9.50;8.03;;;;;;;;;;5111400;28;20284;-81
2023/03/24 04:07:13;;;;;;;8.57;7.07;;;;;;;;;;5111288;28;20207;-81
2023/03/24 04:09:48;;;;;;;10.70;8.30;;;;;;;;;;5111385;28;20218;-81
2023/03/24 04:12:24;;;;;;;8.67;7.67;;;;;;;;;;5110551;28;20234;-81
2023/03/24 04:15:15;;;;;;;9.37;7.90;;;;;;;;;;5093519;28;20223;-78
2023/03/24 04:18:09;;;;;;;9.87;8.47;;;;;;;;;;5103119;28;20199;-79
2023/03/24 04:20:45;;;;;;;9.60;8.17;;;;;;;;;;5109624;28;20199;-79
2023/03/24 04:23:21;;;;;;;10.17;8.03;;;;;;;;;;5110105;28;20260;-79
2023/03/24 04:25:55;;;;;;;11.30;8.63;;;;;;;;;;5112726;28;20298;-80
2023/03/24 04:28:25;;;;;;;9.97;8.43;;;;;;;;;;5115153;28;20210;-79
2023/03/24 04:30:57;;;;;;;11.00;8.77;;;;;;;;;;5112574;28;20761;-80
2023/03/24 04:33:27;;;;;;;9.23;8.27;;;;;;;;;;5102437;28;20206;-80
2023/03/24 04:36:05;;;;;;;9.50;8.23;;;;;;;;;;5115006;28;20760;-80
2023/03/24 04:38:34;;;;;;;11.50;7.17;;;;;;;;;;5105168;28;20207;-80
2023/03/24 04:41:02;;;;;;;18.10;13.60;;;;;;;;;;5111765;28;20199;-80
2023/03/24 04:43:35;;;;;;;13.90;10.60;;;;;;;;;;5114981;28;20211;-80
2023/03/24 04:46:04;;;;;;;10.53;9.17;;;;;;;;;;5114685;28;20202;-80
2023/03/24 04:48:30;;;;;;;10.63;8.83;;;;;;;;;;5115098;28;20211;-80
2023/03/24 04:50:59;;;;;;;9.37;8.37;;;;;;;;;;5114748;28;20639;-80
2023/03/24 04:53:26;;;;;;;8.87;7.23;;;;;;;;;;5102090;28;20254;-80
2023/03/24 04:55:58;;;;;;;10.63;7.97;;;;;;;;;;5113791;28;20701;-80
2023/03/24 04:58:25;;;;;;;9.73;8.43;;;;;;;;;;5114261;28;21040;-82
2023/03/24 05:00:54;;;;;;;12.87;8.33;;;;;;;;;;5114559;28;20207;-79
2023/03/24 05:03:22;;;;;;;10.70;8.37;;;;;;;;;;5103780;28;20204;-78
2023/03/24 05:05:51;;;;;;;8.93;7.50;;;;;;;;;;5109392;28;20200;-79
2023/03/24 05:08:18;;;;;;;9.60;7.47;;;;;;;;;;5114711;28;20294;-79
2023/03/24 05:10:45;;;;;;;11.43;10.07;;;;;;;;;;5097759;28;20686;-78
2023/03/24 05:13:12;;;;;;;11.97;10.70;;;;;;;;;;5098816;28;20230;-79
2023/03/24 05:15:40;;;;;;;11.10;9.27;;;;;;;;;;5109335;28;20230;-80
2023/03/24 05:18:07;;;;;;;17.53;11.67;;;;;;;;;;5106406;28;20201;-82
2023/03/24 05:20:35;;;;;;;42.23;23.57;;;;;;;;;;5108239;28;20211;-79
2023/03/24 05:23:02;;;;;;;35.37;21.83;;;;;;;;;;5114743;28;20660;-79
2023/03/24 05:25:29;;;;;;;18.10;15.67;;;;;;;;;;5113950;28;20709;-79
2023/03/24 05:27:56;;;;;;;19.07;14.47;;;;;;;;;;5114022;28;20724;-80
2023/03/24 05:30:23;;;;;;;16.47;11.70;;;;;;;;;;5113749;28;20204;-79
2023/03/24 05:32:50;;;;;;;12.70;11.30;;;;;;;;;;5114140;28;20210;-79
2023/03/24 05:35:17;;;;;;;13.97;11.63;;;;;;;;;;5113640;28;20200;-79
2023/03/24 05:37:45;;;;;;;12.17;10.13;;;;;;;;;;5112617;28;20203;-80
2023/03/24 05:40:14;;;;;;;12.20;10.00;;;;;;;;;;5113841;28;20199;-81
2023/03/24 05:42:41;;;;;;;11.87;10.10;;;;;;;;;;5113308;28;20199;-79
2023/03/24 05:45:09;;;;;;;16.07;13.37;;;;;;;;;;5113863;28;20227;-83
2023/03/24 05:47:36;;;;;;;22.27;17.67;;;;;;;;;;5113778;28;20253;-79
2023/03/24 05:50:03;;;;;;;23.17;16.13;;;;;;;;;;5113659;28;20211;-79
2023/03/24 05:52:30;;;;;;;14.23;11.50;;;;;;;;;;5113571;28;20206;-78
2023/03/24 05:54:58;;;;;;;9.67;8.10;;;;;;;;;;5113883;28;20196;-79
2023/03/24 05:57:29;;;;;;;14.63;12.27;;;;;;;;;;5113456;28;20582;-79
2023/03/24 05:59:56;;;;;;;15.80;12.80;;;;;;;;;;5113675;28;20736;-79
2023/03/24 06:02:23;;;;;;;13.47;11.43;;;;;;;;;;5100488;28;20201;-79
2023/03/24 06:04:51;;;;;;;13.47;11.60;;;;;;;;;;5086718;28;20287;-79
2023/03/24 06:07:19;;;;;;;14.43;12.47;;;;;;;;;;5113149;28;20231;-79
2023/03/24 06:09:49;;;;;;;14.33;11.73;;;;;;;;;;5113585;28;20246;-79
2023/03/24 06:12:17;;;;;;;11.83;10.60;;;;;;;;;;5125942;27;20698;-79
2023/03/24 06:14:44;;;;;;;13.00;10.37;;;;;;;;;;5133733;27;20203;-79
2023/03/24 06:17:13;;;;;;;12.37;10.60;;;;;;;;;;5133583;27;20195;-80
2023/03/24 06:19:48;;;;;;;10.47;9.37;;;;;;;;;;5134354;27;20285;-82
2023/03/24 06:22:16;;;;;;;12.13;9.57;;;;;;;;;;5133036;27;20651;-79
2023/03/24 06:24:43;;;;;;;13.00;11.13;;;;;;;;;;5122985;27;20227;-79
2023/03/24 06:27:10;;;;;;;10.87;9.57;;;;;;;;;;5130797;27;20191;-79
2023/03/24 06:29:41;;;;;;;13.63;9.73;;;;;;;;;;5133523;27;20927;-79
2023/03/24 06:32:08;;;;;;;10.97;8.83;;;;;;;;;;5133590;27;20199;-79
2023/03/24 06:34:35;;;;;;;10.73;8.83;;;;;;;;;;5133432;27;20213;-79
2023/03/24 06:37:01;;;;;;;10.60;9.50;;;;;;;;;;5132832;27;20199;-79
2023/03/24 06:39:28;;;;;;;11.77;10.17;;;;;;;;;;5134048;27;20195;-79
2023/03/24 06:41:55;;;;;;;10.63;8.80;;;;;;;;;;5132761;27;20636;-80
2023/03/24 06:44:22;;;;;;;13.17;10.40;;;;;;;;;;5133023;27;20697;-79
2023/03/24 06:46:50;;;;;;;12.07;10.90;;;;;;;;;;5132600;27;20203;-79
2023/03/24 06:49:20;;;;;;;11.27;10.17;;;;;;;;;;5133056;27;20685;-79
2023/03/24 06:51:47;;;;;;;22.27;17.90;;;;;;;;;;5132597;27;20202;-80
2023/03/24 06:54:14;;;;;;;15.50;12.53;;;;;;;;;;5133246;27;20210;-80
2023/03/24 06:56:41;;;;;;;11.77;10.67;;;;;;;;;;5132809;27;20194;-82
2023/03/24 06:59:08;;;;;;;11.50;9.60;;;;;;;;;;5133244;27;20729;-79
2023/03/24 07:01:35;;;;;;;12.17;10.47;;;;;;;;;;5132488;27;20206;-79
2023/03/24 07:04:03;;;;;;;10.57;9.40;;;;;;;;;;5132769;27;20230;-79
2023/03/24 07:06:30;;;;;;;10.00;8.53;;;;;;;;;;5132724;27;20201;-80
2023/03/24 07:08:58;;;;;;;13.17;10.07;;;;;;;;;;5132526;27;20676;-79
2023/03/24 07:11:26;;;;;;;11.30;8.43;;;;;;;;;;5132595;27;20223;-79
2023/03/24 07:13:52;;;;;;;9.77;8.73;;;;;;;;;;5132737;27;20224;-79
2023/03/24 07:16:19;;;;;;;10.40;9.00;;;;;;;;;;5132238;27;20203;-79
2023/03/24 07:18:46;;;;;;;9.97;8.57;;;;;;;;;;5132335;27;20202;-80
2023/03/24 07:21:14;;;;;;;10.13;8.97;;;;;;;;;;5132623;27;20234;-80
2023/03/24 07:23:41;;;;;;;12.17;9.47;;;;;;;;;;5132464;27;20669;-79
2023/03/24 07:26:07;;;;;;;10.17;9.17;;;;;;;;;;5129665;27;20225;-79
2023/03/24 07:28:34;;;;;;;10.37;8.93;;;;;;;;;;5127454;27;20206;-79
2023/03/24 07:31:02;;;;;;;9.57;7.80;;;;;;;;;;5132175;27;20290;-79
2023/03/24 07:33:29;;;;;;;9.70;8.77;;;;;;;;;;5132197;27;20198;-79
2023/03/24 07:35:57;;;;;;;8.40;7.27;;;;;;;;;;5132174;27;20202;-79
2023/03/24 07:38:28;;;;;;;11.77;8.23;;;;;;;;;;5131871;27;20231;-79
2023/03/24 07:40:55;;;;;;;8.80;7.90;;;;;;;;;;5132678;27;20637;-79
2023/03/24 07:43:23;;;;;;;8.87;8.07;;;;;;;;;;5131608;27;20581;-79
2023/03/24 07:45:50;;;;;;;9.00;8.10;;;;;;;;;;5131984;27;20255;-79
2023/03/24 07:48:16;;;;;;;8.87;7.97;;;;;;;;;;5132455;27;20199;-79
2023/03/24 07:50:43;;;;;;;8.57;7.67;;;;;;;;;;5132309;27;20198;-79
2023/03/24 07:53:10;;;;;;;8.40;7.60;;;;;;;;;;5132062;27;20194;-79
2023/03/24 07:55:38;;;;;;;9.40;7.60;;;;;;;;;;5132140;27;20205;-79
2023/03/24 07:58:06;;;;;;;10.17;8.40;;;;;;;;;;5132063;27;20202;-79
2023/03/24 08:00:33;;;;;;;8.43;7.63;;;;;;;;;;5131417;27;20201;-79
2023/03/24 08:03:00;;;;;;;8.00;7.20;;;;;;;;;;5131933;27;20205;-79
2023/03/24 08:05:29;;;;;;;7.57;6.77;;;;;;;;;;5131802;27;20771;-79
2023/03/24 08:07:56;;;;;;;7.47;6.77;;;;;;;;;;5131785;27;20600;-79
2023/03/24 08:10:25;;;;;;;8.57;7.67;;;;;;;;;;5131768;27;20289;-79
2023/03/24 08:12:54;;;;;;;8.57;7.40;;;;;;;;;;5131349;27;20613;-79
2023/03/24 08:15:21;;;;;;;8.13;7.33;;;;;;;;;;5117983;27;20206;-79
2023/03/24 08:17:52;;;;;;;8.97;8.07;;;;;;;;;;5132021;27;20229;-79
2023/03/24 08:20:20;;;;;;;7.77;6.97;;;;;;;;;;5131457;27;20205;-79
2023/03/24 08:22:49;;;;;;;8.07;7.27;;;;;;;;;;5132240;28;20203;-79
2023/03/24 08:25:18;;;;;;;10.90;8.10;;;;;;;;;;5131105;28;20689;-80
2023/03/24 08:27:45;;;;;;;10.87;9.77;;;;;;;;;;5131918;28;20229;-79
2023/03/24 08:30:16;;;;;;;11.47;8.87;;;;;;;;;;5131560;28;20580;-79
2023/03/24 08:32:45;;;;;;;11.17;9.90;;;;;;;;;;5131868;28;20195;-79
2023/03/24 08:35:13;;;;;;;8.90;8.03;;;;;;;;;;5131465;28;20230;-78
2023/03/24 08:37:42;;;;;;;10.87;9.77;;;;;;;;;;5131017;28;20669;-79
2023/03/24 08:40:12;;;;;;;13.50;10.47;;;;;;;;;;5131077;28;20195;-78
2023/03/24 08:42:39;;;;;;;16.73;11.20;;;;;;;;;;5131723;28;20202;-78
2023/03/24 08:45:07;;;;;;;11.73;10.50;;;;;;;;;;5131039;28;20223;-79
2023/03/24 08:47:35;;;;;;;12.70;11.17;;;;;;;;;;5131609;28;20290;-79
2023/03/24 08:50:02;;;;;;;12.57;10.23;;;;;;;;;;5131942;28;20202;-79
2023/03/24 08:52:29;;;;;;;15.33;11.23;;;;;;;;;;5131202;28;20248;-78
2023/03/24 08:54:56;;;;;;;10.30;9.20;;;;;;;;;;5131563;28;20208;-78
2023/03/24 08:57:23;;;;;;;11.53;9.80;;;;;;;;;;5131282;28;20638;-78
2023/03/24 08:59:50;;;;;;;12.23;10.83;;;;;;;;;;5131361;28;20202;-78
2023/03/24 09:02:16;;;;;;;11.07;9.97;;;;;;;;;;5131737;28;20200;-79
2023/03/24 09:04:45;;;;;;;9.90;8.90;;;;;;;;;;5124810;28;20191;-78
2023/03/24 09:07:12;;;;;;;10.47;9.37;;;;;;;;;;5124715;28;20252;-79
2023/03/24 09:09:39;;;;;;;11.30;10.20;;;;;;;;;;5131520;28;20192;-79
2023/03/24 09:12:06;;;;;;;11.57;9.33;;;;;;;;;;5133951;27;20317;-78
2023/03/24 09:14:33;;;;;;;10.77;9.67;;;;;;;;;;5134222;27;20199;-78
2023/03/24 09:17:00;;;;;;;10.63;9.50;;;;;;;;;;5134966;27;20203;-78
2023/03/24 09:19:27;;;;;;;10.93;9.83;;;;;;;;;;5135075;27;20203;-78
2023/03/24 09:21:56;;;;;;;11.97;9.77;;;;;;;;;;5134818;27;20200;-79
2023/03/24 09:24:22;;;;;;;10.60;9.57;;;;;;;;;;5121393;27;20199;-79
2023/03/24 09:26:51;;;;;;;14.27;11.50;;;;;;;;;;5134133;27;20702;-79
2023/03/24 09:29:18;;;;;;;15.00;10.00;;;;;;;;;;5134752;27;20763;-78
2023/03/24 09:31:45;;;;;;;9.60;8.70;;;;;;;;;;5120541;27;20815;-79
2023/03/24 09:34:12;;;;;;;11.70;8.83;;;;;;;;;;5134905;27;20209;-78
2023/03/24 09:36:38;;;;;;;15.70;11.87;;;;;;;;;;5134838;27;20248;-79
2023/03/24 09:39:07;;;;;;;11.03;9.93;;;;;;;;;;5134616;27;20679;-78
2023/03/24 09:41:34;;;;;;;9.07;8.13;;;;;;;;;;5134417;27;20200;-78
2023/03/24 09:44:04;;;;;;;10.73;9.03;;;;;;;;;;5134540;27;20202;-78
2023/03/24 09:46:34;;;;;;;9.67;8.67;;;;;;;;;;5133798;27;20228;-78
2023/03/24 09:49:01;;;;;;;10.93;9.40;;;;;;;;;;5134651;27;20207;-78
2023/03/24 09:51:29;;;;;;;8.77;7.87;;;;;;;;;;5134220;27;20205;-79
2023/03/24 09:54:01;;;;;;;9.97;8.97;;;;;;;;;;5133984;27;20286;-79
2023/03/24 09:56:30;;;;;;;10.30;7.93;;;;;;;;;;5133952;27;20580;-78
2023/03/24 09:59:04;;;;;;;9.70;8.70;;;;;;;;;;5134540;27;20201;-78
2023/03/24 10:01:34;;;;;;;11.23;9.30;;;;;;;;;;5133853;27;20287;-78
2023/03/24 10:04:01;;;;;;;7.53;6.80;;;;;;;;;;5134298;27;20205;-78
2023/03/24 10:06:31;;;;;;;8.67;7.80;;;;;;;;;;5107304;27;20320;-78
2023/03/24 10:09:07;;;;;;;8.40;7.57;;;;;;;;;;5133704;27;20209;-79
2023/03/24 10:11:42;;;;;;;10.10;7.73;;;;;;;;;;5133140;27;20225;-78
2023/03/24 10:14:21;;;;;;;8.33;7.53;;;;;;;;;;5133811;27;20215;-79
2023/03/24 10:16:53;;;;;;;9.27;7.50;;;;;;;;;;5133762;27;20293;-78
2023/03/24 10:19:27;;;;;;;8.47;7.53;;;;;;;;;;5133719;27;20194;-78
2023/03/24 10:21:59;;;;;;;7.50;6.90;;;;;;;;;;5133358;27;20278;-79
2023/03/24 10:24:31;;;;;;;8.23;7.13;;;;;;;;;;5133421;27;20193;-78
2023/03/24 10:27:03;;;;;;;7.70;7.00;;;;;;;;;;5133849;27;20229;-78
2023/03/24 10:29:31;;;;;;;7.23;6.47;;;;;;;;;;5134215;27;20198;-78
2023/03/24 10:32:00;;;;;;;7.50;6.80;;;;;;;;;;5132958;27;21120;-78
2023/03/24 10:34:29;;;;;;;7.73;6.97;;;;;;;;;;5134296;27;20201;-79
2023/03/24 10:36:58;;;;;;;6.73;6.03;;;;;;;;;;5132596;27;20273;-78
2023/03/24 10:39:25;;;;;;;7.70;6.93;;;;;;;;;;5133727;27;20216;-79
2023/03/24 10:41:53;;;;;;;8.30;7.50;;;;;;;;;;5133449;27;20230;-78
2023/03/24 10:44:22;;;;;;;6.87;6.17;;;;;;;;;;5133501;27;20628;-78
2023/03/24 10:46:51;;;;;;;10.13;6.70;;;;;;;;;;5119075;27;20222;-78
2023/03/24 10:49:19;;;;;;;6.97;5.80;;;;;;;;;;5133541;27;20681;-79
2023/03/24 10:51:49;;;;;;;7.20;5.67;;;;;;;;;;5106209;27;20290;-78
2023/03/24 10:54:17;;;;;;;6.80;6.10;;;;;;;;;;5133224;27;20206;-79
2023/03/24 10:56:46;;;;;;;7.20;6.60;;;;;;;;;;5133354;27;20251;-78
2023/03/24 10:59:22;;;;;;;9.00;6.60;;;;;;;;;;5132680;27;20217;-78
2023/03/24 11:01:51;;;;;;;10.13;7.00;;;;;;;;;;5132762;27;20205;-79
2023/03/24 11:04:19;;;;;;;8.57;6.87;;;;;;;;;;5132670;27;20191;-78
2023/03/24 11:07:04;;;;;;;8.73;6.80;;;;;;;;;;5132627;27;20257;-79
2023/03/24 11:09:39;;;;;;;6.40;5.80;;;;;;;;;;5132708;27;20274;-78
2023/03/24 11:12:20;;;;;;;6.87;6.27;;;;;;;;;;5132368;27;20309;-79
2023/03/24 11:14:48;;;;;;;9.80;7.13;;;;;;;;;;5124273;27;20207;-78
2023/03/24 11:17:15;;;;;;;6.97;6.27;;;;;;;;;;5127532;27;20205;-79
2023/03/24 11:19:51;;;;;;;7.30;6.03;;;;;;;;;;5132771;27;20217;-79
2023/03/24 11:22:18;;;;;;;7.03;6.33;;;;;;;;;;5128540;27;20693;-79
2023/03/24 11:24:48;;;;;;;8.60;6.27;;;;;;;;;;5122550;27;20607;-78
2023/03/24 11:27:17;;;;;;;6.80;6.10;;;;;;;;;;5131866;27;20230;-79
2023/03/24 11:29:48;;;;;;;6.37;5.77;;;;;;;;;;5132398;27;20202;-79
2023/03/24 11:32:20;;;;;;;10.20;6.53;;;;;;;;;;5131692;27;20199;-79
2023/03/24 11:34:48;;;;;;;7.47;6.67;;;;;;;;;;5131347;27;20625;-79
2023/03/24 11:37:17;;;;;;;6.57;5.77;;;;;;;;;;5132340;27;20199;-79
2023/03/24 11:39:44;;;;;;;6.73;5.97;;;;;;;;;;5132706;27;20558;-79
2023/03/24 11:42:15;;;;;;;6.13;5.50;;;;;;;;;;5105661;27;20228;-79
2023/03/24 11:44:46;;;;;;;7.83;7.03;;;;;;;;;;5132462;27;20281;-78
2023/03/24 11:47:23;;;;;;;9.03;7.07;;;;;;;;;;5132048;27;20222;-79
2023/03/24 11:49:53;;;;;;;10.57;7.67;;;;;;;;;;5132538;27;20205;-79
2023/03/24 11:52:23;;;;;;;8.00;7.30;;;;;;;;;;5132604;27;20203;-79
2023/03/24 11:54:50;;;;;;;5.77;5.27;;;;;;;;;;5132206;27;20225;-79
2023/03/24 11:57:28;;;;;;;12.00;9.93;;;;;;;;;;5132447;27;20212;-79
2023/03/24 11:59:57;;;;;;;15.53;11.07;;;;;;;;;;5131857;27;20696;-79
2023/03/24 12:02:38;;;;;;;9.23;7.43;;;;;;;;;;5132211;27;20198;-80
2023/03/24 12:05:21;;;;;;;12.30;10.73;;;;;;;;;;5132132;27;20202;-79
2023/03/24 12:08:12;;;;;;;11.77;9.00;;;;;;;;;;5131839;27;20313;-79
2023/03/24 12:10:50;;;;;;;6.43;5.93;;;;;;;;;;5132018;27;20266;-79
2023/03/24 12:13:21;;;;;;;10.70;6.37;;;;;;;;;;5131696;27;20677;-80
2023/03/24 12:16:00;;;;;;;8.13;5.50;;;;;;;;;;5131567;27;20198;-80
2023/03/24 12:18:42;;;;;;;6.93;6.23;;;;;;;;;;5132407;27;20258;-79
2023/03/24 12:21:37;;;;;;;8.80;5.60;;;;;;;;;;5131172;27;20255;-79
2023/03/24 12:24:12;;;;;;;7.90;6.50;;;;;;;;;;5130853;27;20206;-79
2023/03/24 12:26:39;;;;;;;15.50;10.80;;;;;;;;;;5131603;28;20225;-79
2023/03/24 12:29:32;;;;;;;6.30;5.63;;;;;;;;;;5131120;28;20199;-79
2023/03/24 12:32:11;;;;;;;5.67;5.07;;;;;;;;;;5125178;28;20199;-79
2023/03/24 12:35:02;;;;;;;10.23;5.53;;;;;;;;;;5123665;28;20221;-79
2023/03/24 12:37:34;;;;;;;9.30;8.40;;;;;;;;;;5108317;28;20681;-79
2023/03/24 12:40:19;;;;;;;7.83;7.03;;;;;;;;;;5131526;28;20203;-79
2023/03/24 12:42:46;;;;;;;7.67;6.97;;;;;;;;;;5131487;28;20681;-79
2023/03/24 12:45:25;;;;;;;8.80;5.30;;;;;;;;;;5131845;27;20202;-79
2023/03/24 12:48:02;;;;;;;6.13;5.53;;;;;;;;;;5135633;27;20608;-79
2023/03/24 12:50:43;;;;;;;6.70;5.97;;;;;;;;;;5135344;27;20692;-79
2023/03/24 12:53:21;;;;;;;7.80;7.00;;;;;;;;;;5121639;27;20661;-79
2023/03/24 12:55:51;;;;;;;7.67;5.90;;;;;;;;;;5135551;27;20198;-80
2023/03/24 12:58:20;;;;;;;6.07;5.47;;;;;;;;;;5134819;27;20206;-79
2023/03/24 13:00:57;;;;;;;7.10;6.40;;;;;;;;;;5135315;27;20620;-79
2023/03/24 13:03:29;;;;;;;8.80;6.73;;;;;;;;;;5135631;27;20728;-79
2023/03/24 13:05:59;;;;;;;6.50;5.90;;;;;;;;;;5135237;27;20303;-79
2023/03/24 13:08:29;;;;;;;7.27;5.80;;;;;;;;;;5135175;27;20202;-80
2023/03/24 13:11:01;;;;;;;6.50;5.90;;;;;;;;;;5134291;27;20677;-80
2023/03/24 13:13:30;;;;;;;5.57;5.00;;;;;;;;;;5135491;27;20275;-79
2023/03/24 13:15:59;;;;;;;7.27;5.10;;;;;;;;;;5134415;27;20210;-79
2023/03/24 13:18:30;;;;;;;6.00;5.50;;;;;;;;;;5135247;27;20201;-79
2023/03/24 13:21:03;;;;;;;6.43;5.77;;;;;;;;;;5134560;27;20270;-79
2023/03/24 13:23:46;;;;;;;5.80;5.30;;;;;;;;;;5134924;27;20199;-79
2023/03/24 13:26:22;;;;;;;6.90;5.20;;;;;;;;;;5135165;27;20202;-78
2023/03/24 13:28:56;;;;;;;6.43;5.70;;;;;;;;;;5134731;27;20190;-79
2023/03/24 13:31:24;;;;;;;7.77;6.17;;;;;;;;;;5134484;27;20685;-78
2023/03/24 13:33:51;;;;;;;6.83;6.20;;;;;;;;;;5134863;27;20680;-79
2023/03/24 13:36:34;;;;;;;6.37;5.27;;;;;;;;;;5134680;27;20597;-79
2023/03/24 13:39:04;;;;;;;8.50;6.60;;;;;;;;;;5134954;27;20206;-79
2023/03/24 13:41:33;;;;;;;5.67;4.80;;;;;;;;;;5134196;27;20664;-79
2023/03/24 13:44:02;;;;;;;7.00;5.43;;;;;;;;;;5134674;27;20199;-79
2023/03/24 13:46:29;;;;;;;7.50;5.80;;;;;;;;;;5133865;27;20233;-79
2023/03/24 13:48:57;;;;;;;5.93;5.40;;;;;;;;;;5134220;27;20275;-79
2023/03/24 13:51:29;;;;;;;6.33;5.03;;;;;;;;;;5134491;27;20203;-79
2023/03/24 13:53:58;;;;;;;5.50;4.97;;;;;;;;;;5134527;27;20673;-79
2023/03/24 13:56:28;;;;;;;6.57;5.03;;;;;;;;;;5134162;27;20209;-83
2023/03/24 13:59:27;;;;;;;5.60;4.27;;;;;;;;;;5133348;27;20258;-81
2023/03/24 14:02:20;;;;;;;5.50;5.00;;;;;;;;;;5120424;27;20583;-79
2023/03/24 14:04:47;;;;;;;6.40;5.27;;;;;;;;;;5134124;27;20647;-79
2023/03/24 14:07:31;;;;;;;6.77;5.07;;;;;;;;;;5134126;27;20226;-79
2023/03/24 14:09:59;;;;;;;6.40;5.00;;;;;;;;;;5111066;27;20210;-79
2023/03/24 14:12:26;;;;;;;5.13;4.57;;;;;;;;;;5134034;27;20226;-79
2023/03/24 14:15:26;;;;;;;5.67;5.07;;;;;;;;;;5134242;27;20689;-78
2023/03/24 14:17:55;;;;;;;4.83;4.33;;;;;;;;;;5070615;28;20209;-79
2023/03/24 14:20:28;;;;;;;4.77;4.37;;;;;;;;;;5121073;27;20243;-80
2023/03/24 14:22:56;;;;;;;7.53;5.43;;;;;;;;;;5108718;27;20200;-79
2023/03/24 14:25:28;;;;;;;6.37;5.00;;;;;;;;;;5118681;27;20190;-89
2023/03/24 14:28:07;;;;;;;9.60;5.60;;;;;;;;;;5101344;27;20219;-85
2023/03/24 14:30:36;;;;;;;4.33;3.87;;;;;;;;;;5134033;27;20202;-81
2023/03/24 14:33:04;;;;;;;3.97;3.67;;;;;;;;;;5133352;27;20281;-81
2023/03/24 14:35:33;;;;;;;9.47;6.40;;;;;;;;;;5120755;27;20198;-81
2023/03/24 14:38:03;;;;;;;7.67;5.27;;;;;;;;;;5119580;27;20205;-79
2023/03/24 14:40:35;;;;;;;5.03;4.17;;;;;;;;;;5132983;27;20244;-81
2023/03/24 14:43:13;;;;;;;4.87;3.57;;;;;;;;;;5132970;27;20572;-80
2023/03/24 14:45:56;;;;;;;6.97;4.17;;;;;;;;;;5132867;27;20210;-80
2023/03/24 14:48:42;;;;;;;5.43;4.60;;;;;;;;;;5125546;27;20225;-79
2023/03/24 14:51:35;;;;;;;6.03;4.73;;;;;;;;;;5132988;27;20207;-78
2023/03/24 14:54:05;;;;;;;6.90;4.13;;;;;;;;;;5121255;27;20200;-78
2023/03/24 14:56:36;;;;;;;6.13;5.63;;;;;;;;;;5132522;27;20239;-79
2023/03/24 14:59:07;;;;;;;4.70;4.23;;;;;;;;;;5129115;27;20319;-79